sensor_id;sensor_type;location;lat;lon;timestamp;P1;durP1;ratioP1;P2;durP2;ratioP2
8435;SDS011;4255;48.730;9.156;2024-01-25T00:00:41;12.37;;;4.10;;
8435;SDS011;4255;48.730;9.156;2024-01-25T00:03:07;8.03;;;4.17;;
8435;SDS011;4255;48.730;9.156;2024-01-25T00:05:32;13.13;;;3.97;;
8435;SDS011;4255;48.730;9.156;2024-01-25T00:07:58;16.50;;;4.53;;
8435;SDS011;4255;48.730;9.156;2024-01-25T00:10:23;15.43;;;5.80;;
8435;SDS011;4255;48.730;9.156;2024-01-25T00:12:49;18.50;;;4.27;;
8435;SDS011;4255;48.730;9.156;2024-01-25T00:15:14;18.83;;;4.80;;
8435;SDS011;4255;48.730;9.156;2024-01-25T00:17:41;16.80;;;5.30;;
8435;SDS011;4255;48.730;9.156;2024-01-25T00:20:08;22.83;;;4.85;;
8435;SDS011;4255;48.730;9.156;2024-01-25T00:22:35;16.20;;;4.40;;
8435;SDS011;4255;48.730;9.156;2024-01-25T00:25:02;19.95;;;4.40;;
8435;SDS011;4255;48.730;9.156;2024-01-25T00:27:27;17.70;;;4.23;;
8435;SDS011;4255;48.730;9.156;2024-01-25T00:29:53;22.50;;;5.00;;
8435;SDS011;4255;48.730;9.156;2024-01-25T00:32:18;21.47;;;5.87;;
8435;SDS011;4255;48.730;9.156;2024-01-25T00:34:44;12.23;;;3.83;;
8435;SDS011;4255;48.730;9.156;2024-01-25T00:37:10;17.10;;;4.03;;
8435;SDS011;4255;48.730;9.156;2024-01-25T00:39:36;15.97;;;4.20;;
8435;SDS011;4255;48.730;9.156;2024-01-25T00:42:05;17.23;;;4.23;;
8435;SDS011;4255;48.730;9.156;2024-01-25T00:44:31;21.50;;;4.45;;
8435;SDS011;4255;48.730;9.156;2024-01-25T00:46:58;12.63;;;4.10;;
8435;SDS011;4255;48.730;9.156;2024-01-25T00:49:24;19.92;;;4.68;;
8435;SDS011;4255;48.730;9.156;2024-01-25T00:51:50;20.95;;;4.40;;
8435;SDS011;4255;48.730;9.156;2024-01-25T00:54:23;19.58;;;4.47;;
8435;SDS011;4255;48.730;9.156;2024-01-25T00:56:49;16.27;;;4.50;;
8435;SDS011;4255;48.730;9.156;2024-01-25T00:59:17;13.65;;;4.93;;
8435;SDS011;4255;48.730;9.156;2024-01-25T01:01:46;21.08;;;4.65;;
8435;SDS011;4255;48.730;9.156;2024-01-25T01:04:13;25.05;;;4.25;;
8435;SDS011;4255;48.730;9.156;2024-01-25T01:06:40;14.35;;;3.80;;
8435;SDS011;4255;48.730;9.156;2024-01-25T01:09:05;11.50;;;4.27;;
8435;SDS011;4255;48.730;9.156;2024-01-25T01:11:31;15.13;;;4.47;;
8435;SDS011;4255;48.730;9.156;2024-01-25T01:13:57;19.53;;;4.27;;
8435;SDS011;4255;48.730;9.156;2024-01-25T01:16:22;28.43;;;6.60;;
8435;SDS011;4255;48.730;9.156;2024-01-25T01:18:48;11.53;;;3.80;;
8435;SDS011;4255;48.730;9.156;2024-01-25T01:21:13;14.43;;;4.10;;
8435;SDS011;4255;48.730;9.156;2024-01-25T01:23:39;16.97;;;4.13;;
8435;SDS011;4255;48.730;9.156;2024-01-25T01:26:05;16.17;;;5.00;;
8435;SDS011;4255;48.730;9.156;2024-01-25T01:28:30;15.77;;;4.67;;
8435;SDS011;4255;48.730;9.156;2024-01-25T01:30:56;22.00;;;5.10;;
8435;SDS011;4255;48.730;9.156;2024-01-25T01:33:22;13.90;;;3.67;;
8435;SDS011;4255;48.730;9.156;2024-01-25T01:35:47;18.43;;;3.43;;
8435;SDS011;4255;48.730;9.156;2024-01-25T01:38:13;8.20;;;3.90;;
8435;SDS011;4255;48.730;9.156;2024-01-25T01:40:39;16.33;;;3.72;;
8435;SDS011;4255;48.730;9.156;2024-01-25T01:43:05;13.40;;;3.40;;
8435;SDS011;4255;48.730;9.156;2024-01-25T01:45:30;11.63;;;4.10;;
8435;SDS011;4255;48.730;9.156;2024-01-25T01:47:56;17.10;;;4.17;;
8435;SDS011;4255;48.730;9.156;2024-01-25T01:50:23;14.10;;;3.38;;
8435;SDS011;4255;48.730;9.156;2024-01-25T01:52:49;15.25;;;4.10;;
8435;SDS011;4255;48.730;9.156;2024-01-25T01:55:16;16.63;;;4.45;;
8435;SDS011;4255;48.730;9.156;2024-01-25T01:57:42;14.48;;;3.75;;
8435;SDS011;4255;48.730;9.156;2024-01-25T02:00:09;12.85;;;5.78;;
8435;SDS011;4255;48.730;9.156;2024-01-25T02:02:35;19.13;;;4.28;;
8435;SDS011;4255;48.730;9.156;2024-01-25T02:05:01;8.00;;;2.97;;
8435;SDS011;4255;48.730;9.156;2024-01-25T02:07:26;21.37;;;4.60;;
8435;SDS011;4255;48.730;9.156;2024-01-25T02:09:53;10.55;;;3.17;;
8435;SDS011;4255;48.730;9.156;2024-01-25T02:12:19;13.97;;;4.00;;
8435;SDS011;4255;48.730;9.156;2024-01-25T02:14:44;10.00;;;3.30;;
8435;SDS011;4255;48.730;9.156;2024-01-25T02:17:10;16.63;;;3.70;;
8435;SDS011;4255;48.730;9.156;2024-01-25T02:19:36;14.97;;;4.10;;
8435;SDS011;4255;48.730;9.156;2024-01-25T02:22:01;13.43;;;3.60;;
8435;SDS011;4255;48.730;9.156;2024-01-25T02:24:30;12.13;;;3.80;;
8435;SDS011;4255;48.730;9.156;2024-01-25T02:26:55;17.63;;;5.53;;
8435;SDS011;4255;48.730;9.156;2024-01-25T02:29:21;11.23;;;4.07;;
8435;SDS011;4255;48.730;9.156;2024-01-25T02:31:47;13.57;;;3.47;;
8435;SDS011;4255;48.730;9.156;2024-01-25T02:34:13;14.30;;;3.73;;
8435;SDS011;4255;48.730;9.156;2024-01-25T02:36:38;13.03;;;2.93;;
8435;SDS011;4255;48.730;9.156;2024-01-25T02:39:04;12.83;;;5.30;;
8435;SDS011;4255;48.730;9.156;2024-01-25T02:41:30;15.90;;;3.97;;
8435;SDS011;4255;48.730;9.156;2024-01-25T02:43:56;15.27;;;3.97;;
8435;SDS011;4255;48.730;9.156;2024-01-25T02:46:22;9.33;;;3.43;;
8435;SDS011;4255;48.730;9.156;2024-01-25T02:48:48;16.30;;;3.80;;
8435;SDS011;4255;48.730;9.156;2024-01-25T02:51:14;10.80;;;3.77;;
8435;SDS011;4255;48.730;9.156;2024-01-25T02:53:40;10.60;;;3.70;;
8435;SDS011;4255;48.730;9.156;2024-01-25T02:56:06;19.30;;;5.15;;
8435;SDS011;4255;48.730;9.156;2024-01-25T02:58:32;15.75;;;5.10;;
8435;SDS011;4255;48.730;9.156;2024-01-25T03:00:57;19.90;;;4.53;;
8435;SDS011;4255;48.730;9.156;2024-01-25T03:03:23;11.40;;;3.27;;
8435;SDS011;4255;48.730;9.156;2024-01-25T03:05:49;15.27;;;3.63;;
8435;SDS011;4255;48.730;9.156;2024-01-25T03:08:16;18.52;;;4.47;;
8435;SDS011;4255;48.730;9.156;2024-01-25T03:10:41;18.43;;;7.00;;
8435;SDS011;4255;48.730;9.156;2024-01-25T03:13:07;23.57;;;6.00;;
8435;SDS011;4255;48.730;9.156;2024-01-25T03:15:33;17.60;;;9.50;;
8435;SDS011;4255;48.730;9.156;2024-01-25T03:17:58;16.33;;;4.40;;
8435;SDS011;4255;48.730;9.156;2024-01-25T03:20:24;15.50;;;4.47;;
8435;SDS011;4255;48.730;9.156;2024-01-25T03:22:49;14.83;;;4.77;;
8435;SDS011;4255;48.730;9.156;2024-01-25T03:25:15;15.83;;;3.70;;
8435;SDS011;4255;48.730;9.156;2024-01-25T03:27:41;16.90;;;4.23;;
8435;SDS011;4255;48.730;9.156;2024-01-25T03:30:06;15.80;;;4.10;;
8435;SDS011;4255;48.730;9.156;2024-01-25T03:32:33;17.15;;;4.68;;
8435;SDS011;4255;48.730;9.156;2024-01-25T03:34:58;18.57;;;5.00;;
8435;SDS011;4255;48.730;9.156;2024-01-25T03:37:24;13.27;;;4.47;;
8435;SDS011;4255;48.730;9.156;2024-01-25T03:39:49;16.87;;;4.20;;
8435;SDS011;4255;48.730;9.156;2024-01-25T03:42:15;14.70;;;4.10;;
8435;SDS011;4255;48.730;9.156;2024-01-25T03:44:41;13.47;;;4.10;;
8435;SDS011;4255;48.730;9.156;2024-01-25T03:47:07;17.75;;;4.63;;
8435;SDS011;4255;48.730;9.156;2024-01-25T03:49:33;14.43;;;4.17;;
8435;SDS011;4255;48.730;9.156;2024-01-25T03:51:59;15.50;;;4.30;;
8435;SDS011;4255;48.730;9.156;2024-01-25T03:54:25;18.63;;;4.17;;
8435;SDS011;4255;48.730;9.156;2024-01-25T03:56:50;19.60;;;4.03;;
8435;SDS011;4255;48.730;9.156;2024-01-25T03:59:16;19.30;;;5.40;;
8435;SDS011;4255;48.730;9.156;2024-01-25T04:01:44;17.70;;;4.10;;
8435;SDS011;4255;48.730;9.156;2024-01-25T04:04:10;9.13;;;4.30;;
8435;SDS011;4255;48.730;9.156;2024-01-25T04:06:45;12.63;;;4.07;;
8435;SDS011;4255;48.730;9.156;2024-01-25T04:09:11;15.80;;;4.30;;
8435;SDS011;4255;48.730;9.156;2024-01-25T04:11:38;15.63;;;3.85;;
8435;SDS011;4255;48.730;9.156;2024-01-25T04:14:04;16.40;;;4.00;;
8435;SDS011;4255;48.730;9.156;2024-01-25T04:16:30;29.77;;;8.13;;
8435;SDS011;4255;48.730;9.156;2024-01-25T04:18:55;19.90;;;3.40;;
8435;SDS011;4255;48.730;9.156;2024-01-25T04:21:21;23.73;;;5.00;;
8435;SDS011;4255;48.730;9.156;2024-01-25T04:23:47;12.03;;;4.00;;
8435;SDS011;4255;48.730;9.156;2024-01-25T04:26:13;14.67;;;3.43;;
8435;SDS011;4255;48.730;9.156;2024-01-25T04:28:39;20.65;;;4.55;;
8435;SDS011;4255;48.730;9.156;2024-01-25T04:31:05;23.40;;;6.43;;
8435;SDS011;4255;48.730;9.156;2024-01-25T04:33:30;18.80;;;4.40;;
8435;SDS011;4255;48.730;9.156;2024-01-25T04:35:56;13.27;;;3.87;;
8435;SDS011;4255;48.730;9.156;2024-01-25T04:38:22;21.03;;;4.77;;
8435;SDS011;4255;48.730;9.156;2024-01-25T04:40:47;15.43;;;5.40;;
8435;SDS011;4255;48.730;9.156;2024-01-25T04:43:13;17.47;;;4.90;;
8435;SDS011;4255;48.730;9.156;2024-01-25T04:45:39;18.70;;;5.83;;
8435;SDS011;4255;48.730;9.156;2024-01-25T04:48:04;12.23;;;4.70;;
8435;SDS011;4255;48.730;9.156;2024-01-25T04:50:31;14.05;;;3.92;;
8435;SDS011;4255;48.730;9.156;2024-01-25T04:52:56;15.07;;;4.13;;
8435;SDS011;4255;48.730;9.156;2024-01-25T04:55:22;7.43;;;4.17;;
8435;SDS011;4255;48.730;9.156;2024-01-25T04:57:47;16.43;;;4.60;;
8435;SDS011;4255;48.730;9.156;2024-01-25T05:00:16;13.80;;;3.55;;
8435;SDS011;4255;48.730;9.156;2024-01-25T05:02:42;10.23;;;4.77;;
8435;SDS011;4255;48.730;9.156;2024-01-25T05:05:08;24.03;;;3.57;;
8435;SDS011;4255;48.730;9.156;2024-01-25T05:07:33;24.03;;;5.27;;
8435;SDS011;4255;48.730;9.156;2024-01-25T05:09:59;21.03;;;4.83;;
8435;SDS011;4255;48.730;9.156;2024-01-25T05:12:24;13.63;;;4.00;;
8435;SDS011;4255;48.730;9.156;2024-01-25T05:14:50;12.83;;;3.70;;
8435;SDS011;4255;48.730;9.156;2024-01-25T05:17:15;22.57;;;4.57;;
8435;SDS011;4255;48.730;9.156;2024-01-25T05:19:41;19.87;;;4.10;;
8435;SDS011;4255;48.730;9.156;2024-01-25T05:22:07;20.03;;;4.50;;
8435;SDS011;4255;48.730;9.156;2024-01-25T05:24:33;11.40;;;4.10;;
8435;SDS011;4255;48.730;9.156;2024-01-25T05:26:59;14.77;;;3.50;;
8435;SDS011;4255;48.730;9.156;2024-01-25T05:29:24;12.60;;;4.23;;
8435;SDS011;4255;48.730;9.156;2024-01-25T05:31:50;17.03;;;4.00;;
8435;SDS011;4255;48.730;9.156;2024-01-25T05:34:15;13.73;;;4.30;;
8435;SDS011;4255;48.730;9.156;2024-01-25T05:36:41;14.23;;;4.40;;
8435;SDS011;4255;48.730;9.156;2024-01-25T05:39:07;14.10;;;4.43;;
8435;SDS011;4255;48.730;9.156;2024-01-25T05:41:33;16.02;;;3.80;;
8435;SDS011;4255;48.730;9.156;2024-01-25T05:43:59;12.70;;;4.32;;
8435;SDS011;4255;48.730;9.156;2024-01-25T05:46:25;11.68;;;4.90;;
8435;SDS011;4255;48.730;9.156;2024-01-25T05:48:51;17.23;;;4.60;;
8435;SDS011;4255;48.730;9.156;2024-01-25T05:51:16;16.23;;;4.27;;
8435;SDS011;4255;48.730;9.156;2024-01-25T05:53:42;15.60;;;4.10;;
8435;SDS011;4255;48.730;9.156;2024-01-25T05:56:08;18.47;;;4.70;;
8435;SDS011;4255;48.730;9.156;2024-01-25T05:58:34;21.43;;;5.57;;
8435;SDS011;4255;48.730;9.156;2024-01-25T06:00:59;16.23;;;4.77;;
8435;SDS011;4255;48.730;9.156;2024-01-25T06:03:25;13.87;;;4.47;;
8435;SDS011;4255;48.730;9.156;2024-01-25T06:05:50;17.63;;;5.70;;
8435;SDS011;4255;48.730;9.156;2024-01-25T06:08:16;22.37;;;6.03;;
8435;SDS011;4255;48.730;9.156;2024-01-25T06:10:42;17.00;;;5.63;;
8435;SDS011;4255;48.730;9.156;2024-01-25T06:13:08;24.95;;;5.20;;
8435;SDS011;4255;48.730;9.156;2024-01-25T06:15:33;21.17;;;6.20;;
8435;SDS011;4255;48.730;9.156;2024-01-25T06:17:59;21.20;;;6.00;;
8435;SDS011;4255;48.730;9.156;2024-01-25T06:20:24;13.97;;;4.70;;
8435;SDS011;4255;48.730;9.156;2024-01-25T06:22:50;21.97;;;5.30;;
8435;SDS011;4255;48.730;9.156;2024-01-25T06:25:16;15.73;;;4.63;;
8435;SDS011;4255;48.730;9.156;2024-01-25T06:27:41;20.43;;;5.77;;
8435;SDS011;4255;48.730;9.156;2024-01-25T06:30:07;14.30;;;5.10;;
8435;SDS011;4255;48.730;9.156;2024-01-25T06:32:33;33.72;;;6.65;;
8435;SDS011;4255;48.730;9.156;2024-01-25T06:34:58;25.70;;;4.73;;
8435;SDS011;4255;48.730;9.156;2024-01-25T06:37:24;17.10;;;6.40;;
8435;SDS011;4255;48.730;9.156;2024-01-25T06:39:49;22.07;;;5.80;;
8435;SDS011;4255;48.730;9.156;2024-01-25T06:42:15;14.20;;;5.30;;
8435;SDS011;4255;48.730;9.156;2024-01-25T06:44:41;19.27;;;4.93;;
8435;SDS011;4255;48.730;9.156;2024-01-25T06:47:06;25.47;;;5.60;;
8435;SDS011;4255;48.730;9.156;2024-01-25T06:49:32;21.53;;;5.37;;
8435;SDS011;4255;48.730;9.156;2024-01-25T06:51:57;22.33;;;5.00;;
8435;SDS011;4255;48.730;9.156;2024-01-25T06:54:23;26.97;;;6.37;;
8435;SDS011;4255;48.730;9.156;2024-01-25T06:56:49;31.07;;;7.67;;
8435;SDS011;4255;48.730;9.156;2024-01-25T06:59:16;24.33;;;9.50;;
8435;SDS011;4255;48.730;9.156;2024-01-25T07:01:42;27.80;;;11.47;;
8435;SDS011;4255;48.730;9.156;2024-01-25T07:04:08;28.77;;;10.53;;
8435;SDS011;4255;48.730;9.156;2024-01-25T07:06:33;32.97;;;11.17;;
8435;SDS011;4255;48.730;9.156;2024-01-25T07:08:59;46.90;;;14.43;;
8435;SDS011;4255;48.730;9.156;2024-01-25T07:11:24;57.63;;;20.67;;
8435;SDS011;4255;48.730;9.156;2024-01-25T07:13:50;30.23;;;8.00;;
8435;SDS011;4255;48.730;9.156;2024-01-25T07:16:16;13.52;;;6.88;;
8435;SDS011;4255;48.730;9.156;2024-01-25T07:18:44;21.23;;;6.25;;
8435;SDS011;4255;48.730;9.156;2024-01-25T07:21:10;17.60;;;6.40;;
8435;SDS011;4255;48.730;9.156;2024-01-25T07:23:36;31.90;;;7.17;;
8435;SDS011;4255;48.730;9.156;2024-01-25T07:26:01;19.73;;;6.77;;
8435;SDS011;4255;48.730;9.156;2024-01-25T07:28:27;17.93;;;5.90;;
8435;SDS011;4255;48.730;9.156;2024-01-25T07:30:52;22.67;;;6.57;;
8435;SDS011;4255;48.730;9.156;2024-01-25T07:33:18;22.60;;;7.20;;
8435;SDS011;4255;48.730;9.156;2024-01-25T07:35:43;26.03;;;6.13;;
8435;SDS011;4255;48.730;9.156;2024-01-25T07:38:13;22.35;;;6.60;;
8435;SDS011;4255;48.730;9.156;2024-01-25T07:40:39;29.00;;;7.35;;
8435;SDS011;4255;48.730;9.156;2024-01-25T07:43:05;23.50;;;6.17;;
8435;SDS011;4255;48.730;9.156;2024-01-25T07:45:31;19.50;;;6.63;;
8435;SDS011;4255;48.730;9.156;2024-01-25T07:47:57;19.70;;;6.90;;
8435;SDS011;4255;48.730;9.156;2024-01-25T07:50:23;19.73;;;6.53;;
8435;SDS011;4255;48.730;9.156;2024-01-25T07:52:48;25.90;;;6.50;;
8435;SDS011;4255;48.730;9.156;2024-01-25T07:55:15;22.35;;;6.53;;
8435;SDS011;4255;48.730;9.156;2024-01-25T07:57:41;30.77;;;7.47;;
8435;SDS011;4255;48.730;9.156;2024-01-25T08:00:07;26.13;;;6.90;;
8435;SDS011;4255;48.730;9.156;2024-01-25T08:02:33;23.08;;;7.32;;
8435;SDS011;4255;48.730;9.156;2024-01-25T08:04:59;44.17;;;6.32;;
8435;SDS011;4255;48.730;9.156;2024-01-25T08:07:25;17.57;;;5.97;;
8435;SDS011;4255;48.730;9.156;2024-01-25T08:09:51;20.77;;;6.30;;
8435;SDS011;4255;48.730;9.156;2024-01-25T08:12:17;19.63;;;5.20;;
8435;SDS011;4255;48.730;9.156;2024-01-25T08:14:43;29.20;;;7.20;;
8435;SDS011;4255;48.730;9.156;2024-01-25T08:17:09;17.90;;;6.07;;
8435;SDS011;4255;48.730;9.156;2024-01-25T08:19:35;14.70;;;6.90;;
8435;SDS011;4255;48.730;9.156;2024-01-25T08:22:01;20.07;;;6.60;;
8435;SDS011;4255;48.730;9.156;2024-01-25T08:24:27;12.50;;;5.40;;
8435;SDS011;4255;48.730;9.156;2024-01-25T08:26:52;17.07;;;5.33;;
8435;SDS011;4255;48.730;9.156;2024-01-25T08:29:18;19.43;;;7.63;;
8435;SDS011;4255;48.730;9.156;2024-01-25T08:31:44;25.67;;;8.10;;
8435;SDS011;4255;48.730;9.156;2024-01-25T08:34:11;22.00;;;8.23;;
8435;SDS011;4255;48.730;9.156;2024-01-25T08:36:36;17.60;;;4.90;;
8435;SDS011;4255;48.730;9.156;2024-01-25T08:39:02;31.90;;;7.10;;
8435;SDS011;4255;48.730;9.156;2024-01-25T08:41:29;25.75;;;5.28;;
8435;SDS011;4255;48.730;9.156;2024-01-25T08:43:55;18.27;;;6.93;;
8435;SDS011;4255;48.730;9.156;2024-01-25T08:46:20;14.33;;;5.03;;
8435;SDS011;4255;48.730;9.156;2024-01-25T08:48:46;17.27;;;5.03;;
8435;SDS011;4255;48.730;9.156;2024-01-25T08:51:11;14.30;;;5.50;;
8435;SDS011;4255;48.730;9.156;2024-01-25T08:53:37;26.90;;;6.73;;
8435;SDS011;4255;48.730;9.156;2024-01-25T08:56:02;20.60;;;5.97;;
8435;SDS011;4255;48.730;9.156;2024-01-25T08:58:29;14.20;;;5.07;;
8435;SDS011;4255;48.730;9.156;2024-01-25T09:00:55;26.60;;;5.10;;
8435;SDS011;4255;48.730;9.156;2024-01-25T09:03:21;19.83;;;5.03;;
8435;SDS011;4255;48.730;9.156;2024-01-25T09:05:47;22.27;;;5.03;;
8435;SDS011;4255;48.730;9.156;2024-01-25T09:08:13;14.40;;;4.77;;
8435;SDS011;4255;48.730;9.156;2024-01-25T09:10:42;14.52;;;4.20;;
8435;SDS011;4255;48.730;9.156;2024-01-25T09:13:08;18.77;;;4.78;;
8435;SDS011;4255;48.730;9.156;2024-01-25T09:15:34;25.73;;;4.43;;
8435;SDS011;4255;48.730;9.156;2024-01-25T09:17:59;8.23;;;4.57;;
8435;SDS011;4255;48.730;9.156;2024-01-25T09:20:25;13.37;;;4.10;;
8435;SDS011;4255;48.730;9.156;2024-01-25T09:22:51;20.40;;;5.30;;
8435;SDS011;4255;48.730;9.156;2024-01-25T09:25:19;16.45;;;4.95;;
8435;SDS011;4255;48.730;9.156;2024-01-25T09:27:44;12.90;;;4.47;;
8435;SDS011;4255;48.730;9.156;2024-01-25T09:30:10;13.07;;;4.60;;
8435;SDS011;4255;48.730;9.156;2024-01-25T09:32:36;11.43;;;3.83;;
8435;SDS011;4255;48.730;9.156;2024-01-25T09:35:01;12.53;;;3.73;;
8435;SDS011;4255;48.730;9.156;2024-01-25T09:37:27;16.57;;;5.30;;
8435;SDS011;4255;48.730;9.156;2024-01-25T09:39:53;13.67;;;3.93;;
8435;SDS011;4255;48.730;9.156;2024-01-25T09:42:18;10.23;;;4.00;;
8435;SDS011;4255;48.730;9.156;2024-01-25T09:44:44;13.50;;;4.73;;
8435;SDS011;4255;48.730;9.156;2024-01-25T09:47:11;16.85;;;4.22;;
8435;SDS011;4255;48.730;9.156;2024-01-25T09:49:36;15.70;;;4.13;;
8435;SDS011;4255;48.730;9.156;2024-01-25T09:52:03;13.33;;;4.60;;
8435;SDS011;4255;48.730;9.156;2024-01-25T09:54:39;14.00;;;3.97;;
8435;SDS011;4255;48.730;9.156;2024-01-25T09:57:14;20.33;;;4.40;;
8435;SDS011;4255;48.730;9.156;2024-01-25T09:59:44;21.17;;;4.70;;
8435;SDS011;4255;48.730;9.156;2024-01-25T10:02:10;21.10;;;3.88;;
8435;SDS011;4255;48.730;9.156;2024-01-25T10:04:36;14.68;;;4.72;;
8435;SDS011;4255;48.730;9.156;2024-01-25T10:07:02;14.63;;;3.92;;
8435;SDS011;4255;48.730;9.156;2024-01-25T10:09:28;9.95;;;4.00;;
8435;SDS011;4255;48.730;9.156;2024-01-25T10:11:56;10.00;;;4.15;;
8435;SDS011;4255;48.730;9.156;2024-01-25T10:14:22;12.40;;;4.90;;
8435;SDS011;4255;48.730;9.156;2024-01-25T10:16:47;12.87;;;4.27;;
8435;SDS011;4255;48.730;9.156;2024-01-25T10:19:13;13.23;;;3.87;;
8435;SDS011;4255;48.730;9.156;2024-01-25T10:21:40;17.27;;;4.20;;
8435;SDS011;4255;48.730;9.156;2024-01-25T10:24:06;13.68;;;4.07;;
8435;SDS011;4255;48.730;9.156;2024-01-25T10:26:33;21.00;;;5.32;;
8435;SDS011;4255;48.730;9.156;2024-01-25T10:29:00;12.27;;;3.90;;
8435;SDS011;4255;48.730;9.156;2024-01-25T10:31:28;14.52;;;4.53;;
8435;SDS011;4255;48.730;9.156;2024-01-25T10:33:54;14.33;;;4.27;;
8435;SDS011;4255;48.730;9.156;2024-01-25T10:36:20;9.77;;;4.40;;
8435;SDS011;4255;48.730;9.156;2024-01-25T10:38:48;9.37;;;4.00;;
8435;SDS011;4255;48.730;9.156;2024-01-25T10:41:17;18.07;;;5.10;;
8435;SDS011;4255;48.730;9.156;2024-01-25T10:43:44;13.53;;;3.40;;
8435;SDS011;4255;48.730;9.156;2024-01-25T10:46:10;12.60;;;4.40;;
8435;SDS011;4255;48.730;9.156;2024-01-25T10:48:36;13.63;;;3.93;;
8435;SDS011;4255;48.730;9.156;2024-01-25T10:51:03;16.10;;;4.77;;
8435;SDS011;4255;48.730;9.156;2024-01-25T10:53:31;12.60;;;4.27;;
8435;SDS011;4255;48.730;9.156;2024-01-25T10:55:58;16.17;;;5.67;;
8435;SDS011;4255;48.730;9.156;2024-01-25T10:58:24;10.23;;;4.00;;
8435;SDS011;4255;48.730;9.156;2024-01-25T11:01:01;13.67;;;4.00;;
8435;SDS011;4255;48.730;9.156;2024-01-25T11:03:28;10.67;;;3.80;;
8435;SDS011;4255;48.730;9.156;2024-01-25T11:06:05;9.90;;;3.17;;
8435;SDS011;4255;48.730;9.156;2024-01-25T11:08:33;18.37;;;4.00;;
8435;SDS011;4255;48.730;9.156;2024-01-25T11:10:58;14.70;;;3.53;;
8435;SDS011;4255;48.730;9.156;2024-01-25T11:13:26;7.40;;;3.90;;
8435;SDS011;4255;48.730;9.156;2024-01-25T11:15:52;9.80;;;3.77;;
8435;SDS011;4255;48.730;9.156;2024-01-25T11:18:18;6.67;;;4.13;;
8435;SDS011;4255;48.730;9.156;2024-01-25T11:20:46;13.83;;;3.30;;
8435;SDS011;4255;48.730;9.156;2024-01-25T11:23:13;9.00;;;3.20;;
8435;SDS011;4255;48.730;9.156;2024-01-25T11:25:43;12.87;;;3.50;;
8435;SDS011;4255;48.730;9.156;2024-01-25T11:28:10;19.20;;;4.57;;
8435;SDS011;4255;48.730;9.156;2024-01-25T11:30:38;10.30;;;3.67;;
8435;SDS011;4255;48.730;9.156;2024-01-25T11:33:04;17.40;;;4.60;;
8435;SDS011;4255;48.730;9.156;2024-01-25T11:35:31;14.13;;;3.80;;
8435;SDS011;4255;48.730;9.156;2024-01-25T11:37:57;9.07;;;3.60;;
8435;SDS011;4255;48.730;9.156;2024-01-25T11:40:23;16.87;;;3.83;;
8435;SDS011;4255;48.730;9.156;2024-01-25T11:42:49;12.47;;;4.10;;
8435;SDS011;4255;48.730;9.156;2024-01-25T11:45:15;16.40;;;3.90;;
8435;SDS011;4255;48.730;9.156;2024-01-25T11:47:42;11.40;;;3.73;;
8435;SDS011;4255;48.730;9.156;2024-01-25T11:50:10;16.57;;;4.97;;
8435;SDS011;4255;48.730;9.156;2024-01-25T11:52:37;13.63;;;4.40;;
8435;SDS011;4255;48.730;9.156;2024-01-25T11:55:04;17.50;;;3.87;;
8435;SDS011;4255;48.730;9.156;2024-01-25T11:57:40;22.80;;;4.57;;
8435;SDS011;4255;48.730;9.156;2024-01-25T12:00:09;6.53;;;3.20;;
8435;SDS011;4255;48.730;9.156;2024-01-25T12:02:38;11.77;;;3.70;;
8435;SDS011;4255;48.730;9.156;2024-01-25T12:05:05;11.37;;;4.43;;
8435;SDS011;4255;48.730;9.156;2024-01-25T12:07:31;9.73;;;4.30;;
8435;SDS011;4255;48.730;9.156;2024-01-25T12:10:01;13.50;;;3.73;;
8435;SDS011;4255;48.730;9.156;2024-01-25T12:12:28;14.33;;;4.77;;
8435;SDS011;4255;48.730;9.156;2024-01-25T12:14:57;12.90;;;3.37;;
8435;SDS011;4255;48.730;9.156;2024-01-25T12:17:29;10.37;;;3.93;;
8435;SDS011;4255;48.730;9.156;2024-01-25T12:19:56;12.90;;;4.40;;
8435;SDS011;4255;48.730;9.156;2024-01-25T12:22:22;14.40;;;4.10;;
8435;SDS011;4255;48.730;9.156;2024-01-25T12:24:48;11.30;;;3.53;;
8435;SDS011;4255;48.730;9.156;2024-01-25T12:27:17;9.20;;;3.23;;
8435;SDS011;4255;48.730;9.156;2024-01-25T12:29:42;4.10;;;3.13;;
8435;SDS011;4255;48.730;9.156;2024-01-25T12:32:08;11.20;;;3.73;;
8435;SDS011;4255;48.730;9.156;2024-01-25T12:34:34;10.93;;;3.63;;
8435;SDS011;4255;48.730;9.156;2024-01-25T12:37:02;7.37;;;3.07;;
8435;SDS011;4255;48.730;9.156;2024-01-25T12:39:28;11.60;;;3.80;;
8435;SDS011;4255;48.730;9.156;2024-01-25T12:41:53;6.30;;;2.90;;
8435;SDS011;4255;48.730;9.156;2024-01-25T12:44:19;9.67;;;3.50;;
8435;SDS011;4255;48.730;9.156;2024-01-25T12:46:45;8.77;;;3.30;;
8435;SDS011;4255;48.730;9.156;2024-01-25T12:49:10;10.53;;;3.43;;
8435;SDS011;4255;48.730;9.156;2024-01-25T12:51:36;13.80;;;4.37;;
8435;SDS011;4255;48.730;9.156;2024-01-25T12:54:02;11.13;;;3.17;;
8435;SDS011;4255;48.730;9.156;2024-01-25T12:56:27;12.10;;;3.90;;
8435;SDS011;4255;48.730;9.156;2024-01-25T12:58:53;14.80;;;4.40;;
8435;SDS011;4255;48.730;9.156;2024-01-25T13:01:19;10.70;;;3.20;;
8435;SDS011;4255;48.730;9.156;2024-01-25T13:03:45;10.10;;;3.00;;
8435;SDS011;4255;48.730;9.156;2024-01-25T13:06:12;6.90;;;2.60;;
8435;SDS011;4255;48.730;9.156;2024-01-25T13:08:37;9.30;;;4.30;;
8435;SDS011;4255;48.730;9.156;2024-01-25T13:11:03;11.43;;;3.10;;
8435;SDS011;4255;48.730;9.156;2024-01-25T13:13:29;9.70;;;3.67;;
8435;SDS011;4255;48.730;9.156;2024-01-25T13:15:54;8.77;;;3.03;;
8435;SDS011;4255;48.730;9.156;2024-01-25T13:18:20;16.80;;;3.43;;
8435;SDS011;4255;48.730;9.156;2024-01-25T13:20:45;10.83;;;3.03;;
8435;SDS011;4255;48.730;9.156;2024-01-25T13:23:11;8.47;;;3.57;;
8435;SDS011;4255;48.730;9.156;2024-01-25T13:25:37;13.37;;;3.03;;
8435;SDS011;4255;48.730;9.156;2024-01-25T13:28:02;7.03;;;3.20;;
8435;SDS011;4255;48.730;9.156;2024-01-25T13:30:28;11.73;;;3.83;;
8435;SDS011;4255;48.730;9.156;2024-01-25T13:32:54;11.33;;;2.90;;
8435;SDS011;4255;48.730;9.156;2024-01-25T13:35:19;9.20;;;2.90;;
8435;SDS011;4255;48.730;9.156;2024-01-25T13:37:45;6.67;;;3.00;;
8435;SDS011;4255;48.730;9.156;2024-01-25T13:40:10;7.93;;;3.23;;
8435;SDS011;4255;48.730;9.156;2024-01-25T13:42:36;11.43;;;3.40;;
8435;SDS011;4255;48.730;9.156;2024-01-25T13:45:01;8.97;;;3.47;;
8435;SDS011;4255;48.730;9.156;2024-01-25T13:47:27;9.17;;;2.57;;
8435;SDS011;4255;48.730;9.156;2024-01-25T13:49:53;13.13;;;4.03;;
8435;SDS011;4255;48.730;9.156;2024-01-25T13:52:19;9.60;;;3.47;;
8435;SDS011;4255;48.730;9.156;2024-01-25T13:54:46;7.80;;;2.93;;
8435;SDS011;4255;48.730;9.156;2024-01-25T13:57:14;19.00;;;6.10;;
8435;SDS011;4255;48.730;9.156;2024-01-25T13:59:40;11.97;;;3.80;;
8435;SDS011;4255;48.730;9.156;2024-01-25T14:02:05;5.10;;;3.17;;
8435;SDS011;4255;48.730;9.156;2024-01-25T14:04:31;11.60;;;3.63;;
8435;SDS011;4255;48.730;9.156;2024-01-25T14:06:56;9.23;;;3.10;;
8435;SDS011;4255;48.730;9.156;2024-01-25T14:09:22;6.03;;;3.20;;
8435;SDS011;4255;48.730;9.156;2024-01-25T14:11:48;8.60;;;3.20;;
8435;SDS011;4255;48.730;9.156;2024-01-25T14:14:13;12.23;;;5.47;;
8435;SDS011;4255;48.730;9.156;2024-01-25T14:16:39;4.57;;;2.73;;
8435;SDS011;4255;48.730;9.156;2024-01-25T14:19:04;6.20;;;3.10;;
8435;SDS011;4255;48.730;9.156;2024-01-25T14:21:31;6.40;;;3.67;;
8435;SDS011;4255;48.730;9.156;2024-01-25T14:23:57;7.97;;;2.50;;
8435;SDS011;4255;48.730;9.156;2024-01-25T14:26:22;7.70;;;2.53;;
8435;SDS011;4255;48.730;9.156;2024-01-25T14:28:48;5.37;;;2.43;;
8435;SDS011;4255;48.730;9.156;2024-01-25T14:31:14;6.93;;;4.10;;
8435;SDS011;4255;48.730;9.156;2024-01-25T14:33:40;7.57;;;2.60;;
8435;SDS011;4255;48.730;9.156;2024-01-25T14:36:05;5.83;;;3.07;;
8435;SDS011;4255;48.730;9.156;2024-01-25T14:38:31;10.37;;;3.20;;
8435;SDS011;4255;48.730;9.156;2024-01-25T14:40:58;23.83;;;4.13;;
8435;SDS011;4255;48.730;9.156;2024-01-25T14:43:24;8.30;;;2.80;;
8435;SDS011;4255;48.730;9.156;2024-01-25T14:45:50;7.30;;;2.60;;
8435;SDS011;4255;48.730;9.156;2024-01-25T14:48:15;6.13;;;3.40;;
8435;SDS011;4255;48.730;9.156;2024-01-25T14:50:42;14.60;;;5.00;;
8435;SDS011;4255;48.730;9.156;2024-01-25T14:53:07;9.83;;;3.70;;
8435;SDS011;4255;48.730;9.156;2024-01-25T14:55:33;12.30;;;3.77;;